Zook Spur, Iowa
Current Conditions -  °F | °C
As of 10:55 AM on Thursday 30 Oct 2014 (Local Time) from KBNW Reporting Station
Overcast Overcast  
Wind Chill: 50°   Ceiling: 10000
Heat Index: 50°   Visibility: 10mi
Dew Point: 37°   Wind: 0mph
Humidity: 62%   Direction: NA
Pressure: 30.02"   Gusts: NA
Location:  41.9049°N, 93.9596°W
Report Text: KBNW 301555Z AUTO 00000KT 10SM OVC100 10/03 A3002 RMK AO2
Loading
Personal Weather Stations






























Interactive Weather Map
Tropical Storm Tracking
New forecast layout! Learn more

10-Day Weather Forecast

Advertisements
Track Severe Weather on mobile